Time;durP1;ratioP1;P1;durP2;ratioP2;P2;SDS_P1;SDS_P2;PMS_P1;PMS_P2;Temp;Humidity;BMP_temperature;BMP_pressure;BME280_temperature;BME280_humidity;BME280_pressure;Samples;Min_cycle;Max_cycle;Signal;HPM_P1;HPM_P2
2023/05/03 00:01:46;;;;;;;;;;;;;;;14.76;100.00;100011.34;5089413;28;19916;-78
2023/05/03 00:04:13;;;;;;;;;;;;;;;14.73;100.00;100019.63;5084090;28;19916;-78
2023/05/03 00:06:39;;;;;;;;;;;;;;;14.66;100.00;100024.75;5081476;28;19963;-78
2023/05/03 00:09:04;;;;;;;;;;;;;;;14.61;100.00;100026.19;5075998;28;20411;-77
2023/05/03 00:11:29;;;;;;;;;;;;;;;14.62;100.00;100022.56;5083278;28;20373;-78
2023/05/03 00:13:55;;;;;;;;;;;;;;;14.63;100.00;100024.22;5081769;28;20007;-76
2023/05/03 00:16:20;;;;;;;;;;;;;;;14.63;100.00;100029.53;5082042;28;19916;-75
2023/05/03 00:18:45;;;;;;;;;;;;;;;14.61;100.00;100031.50;5081800;28;19920;-76
2023/05/03 00:21:11;;;;;;;;;;;;;;;14.62;100.00;100030.53;5082903;28;19930;-77
2023/05/03 00:23:36;;;;;;;;;;;;;;;14.56;100.00;100033.81;5083931;28;19916;-77
2023/05/03 00:26:01;;;;;;;;;;;;;;;14.45;100.00;100032.25;5084612;28;20383;-76
2023/05/03 00:28:27;;;;;;;;;;;;;;;14.42;100.00;100026.44;5081622;28;19920;-75
2023/05/03 00:30:52;;;;;;;;;;;;;;;14.46;100.00;100027.78;5062598;28;19916;-75
2023/05/03 00:33:18;;;;;;;;;;;;;;;14.45;100.00;100020.78;5063559;28;19920;-76
2023/05/03 00:35:43;;;;;;;;;;;;;;;14.48;100.00;100025.81;5066939;28;19927;-76
2023/05/03 00:38:09;;;;;;;;;;;;;;;14.50;100.00;100023.81;5084100;28;19939;-75
2023/05/03 00:48:56;;;;;;;;;;;;;;;14.38;100.00;100025.06;5066378;28;19984;-92
2023/05/03 00:51:22;;;;;;;;;;;;;;;14.38;100.00;100025.06;5068227;28;19951;-90
2023/05/03 00:53:47;;;;;;;;;;;;;;;14.29;100.00;100027.63;5054496;28;19923;-90
2023/05/03 00:56:18;;;;;;;;;;;;;;;14.24;100.00;100023.78;5062046;28;19927;-92
2023/05/03 00:58:43;;;;;;;;;;;;;;;14.20;100.00;100023.25;5061236;28;20335;-91
2023/05/03 01:01:08;;;;;;;;;;;;;;;14.12;100.00;100025.84;5062293;28;19924;-91
2023/05/03 01:03:36;;;;;;;;;;;;;;;14.14;100.00;100015.91;5073865;28;19921;-91
2023/05/03 01:06:04;;;;;;;;;;;;;;;14.12;100.00;100015.25;5067636;28;19916;-90
2023/05/03 01:08:49;;;;;;;;;;;;;;;14.12;100.00;100009.09;5047949;28;20009;-91
2023/05/03 01:11:17;;;;;;;;;;;;;;;14.10;100.00;100017.19;5069532;28;19917;-91
2023/05/03 01:13:51;;;;;;;;;;;;;;;14.07;100.00;100014.88;5026686;28;19916;-92
2023/05/03 01:16:30;;;;;;;;;;;;;;;14.03;100.00;100010.00;5053560;28;19916;-92
2023/05/03 01:19:00;;;;;;;;;;;;;;;14.05;100.00;100006.22;5053320;28;20001;-92
2023/05/03 01:21:27;;;;;;;;;;;;;;;14.04;100.00;100011.66;5046186;28;20364;-91
2023/05/03 01:23:56;;;;;;;;;;;;;;;13.91;100.00;100017.38;5047770;28;19916;-90
2023/05/03 01:26:22;;;;;;;;;;;;;;;13.94;100.00;100017.06;5069471;28;20360;-90
2023/05/03 01:28:48;;;;;;;;;;;;;;;13.70;100.00;100019.50;5031193;28;20305;-90
2023/05/03 01:31:20;;;;;;;;;;;;;;;13.45;100.00;100024.56;5066754;28;19967;-91
2023/05/03 01:34:09;;;;;;;;;;;;;;;13.40;100.00;100039.25;5067751;28;20269;-90
2023/05/03 01:36:35;;;;;;;;;;;;;;;13.47;100.00;100030.56;5066489;28;20348;-88
2023/05/03 01:39:07;;;;;;;;;;;;;;;13.51;100.00;100039.88;5066689;28;19924;-87
2023/05/03 01:41:34;;;;;;;;;;;;;;;13.53;100.00;100032.59;5046357;28;19975;-87
2023/05/03 01:44:00;;;;;;;;;;;;;;;13.57;100.00;100034.94;5068200;28;19923;-87
2023/05/03 01:46:25;;;;;;;;;;;;;;;13.55;100.00;100037.75;5065584;28;19917;-92
2023/05/03 01:48:51;;;;;;;;;;;;;;;13.57;100.00;100040.25;5059046;28;19916;-91
2023/05/03 01:51:16;;;;;;;;;;;;;;;13.49;100.00;100041.81;5035486;28;19924;-91
2023/05/03 01:53:41;;;;;;;;;;;;;;;13.38;100.00;100043.84;5070656;28;20287;-91
2023/05/03 01:56:07;;;;;;;;;;;;;;;13.39;100.00;100033.09;5067863;28;19928;-89
2023/05/03 01:58:33;;;;;;;;;;;;;;;13.38;100.00;100034.09;5049360;28;19916;-92
2023/05/03 02:00:58;;;;;;;;;;;;;;;13.37;100.00;100040.38;5053766;28;20253;-89
2023/05/03 02:03:24;;;;;;;;;;;;;;;13.32;100.00;100042.63;5068653;28;19917;-91
2023/05/03 02:05:49;;;;;;;;;;;;;;;13.21;100.00;100040.19;5049951;28;19920;-91
2023/05/03 02:08:15;;;;;;;;;;;;;;;13.19;100.00;100036.88;5050288;28;20430;-93
2023/05/03 02:10:42;;;;;;;;;;;;;;;13.21;100.00;100044.66;5088955;28;19911;-91
2023/05/03 02:13:08;;;;;;;;;;;;;;;13.27;100.00;100039.59;5088074;28;19973;-93
2023/05/03 02:15:33;;;;;;;;;;;;;;;13.35;100.00;100037.06;5072291;28;19908;-92
2023/05/03 02:18:01;;;;;;;;;;;;;;;13.43;100.00;100037.13;5096948;28;19931;-92
2023/05/03 02:20:26;;;;;;;;;;;;;;;13.50;100.00;100035.53;5095388;28;19992;-91
2023/05/03 02:22:52;;;;;;;;;;;;;;;13.53;100.00;100039.72;5069792;28;19911;-92
2023/05/03 02:25:17;;;;;;;;;;;;;;;13.49;100.00;100036.53;5078471;28;20276;-93
2023/05/03 02:27:43;;;;;;;;;;;;;;;13.45;100.00;100037.81;5066701;28;20010;-93
2023/05/03 02:30:09;;;;;;;;;;;;;;;13.44;100.00;100037.97;5035564;28;19976;-92
2023/05/03 02:32:40;;;;;;;;;;;;;;;13.45;100.00;100037.81;5054996;28;20292;-91
2023/05/03 02:35:06;;;;;;;;;;;;;;;13.41;100.00;100046.22;5047411;28;20004;-86
2023/05/03 02:37:31;;;;;;;;;;;;;;;13.11;100.00;100044.69;5045475;28;19924;-85
2023/05/03 02:39:57;;;;;;;;;;;;;;;13.05;100.00;100034.66;5042756;28;19920;-86
2023/05/03 02:42:23;;;;;;;;;;;;;;;12.98;100.00;100038.88;5067690;28;20258;-87
2023/05/03 02:44:48;;;;;;;;;;;;;;;12.91;100.00;100032.47;5062774;28;20279;-86
2023/05/03 02:47:13;;;;;;;;;;;;;;;12.92;100.00;100034.16;5048994;28;20399;-89
2023/05/03 02:49:41;;;;;;;;;;;;;;;12.92;100.00;100037.66;5041363;28;19984;-87
2023/05/03 02:52:06;;;;;;;;;;;;;;;12.93;100.00;100041.13;5066474;28;19916;-87
2023/05/03 02:54:32;;;;;;;;;;;;;;;12.89;100.00;100050.38;5040808;28;19917;-89
2023/05/03 02:57:01;;;;;;;;;;;;;;;12.77;100.00;100043.56;5045120;28;20266;-89
2023/05/03 02:59:27;;;;;;;;;;;;;;;12.75;100.00;100042.88;5061902;28;20003;-87
2023/05/03 03:01:53;;;;;;;;;;;;;;;12.84;100.00;100044.66;5044892;28;19921;-87
2023/05/03 03:04:19;;;;;;;;;;;;;;;12.85;100.00;100044.50;5063571;28;19917;-87
2023/05/03 03:06:44;;;;;;;;;;;;;;;12.81;100.00;100039.66;5065910;28;20360;-87
2023/05/03 03:09:11;;;;;;;;;;;;;;;12.85;100.00;100043.66;5044949;28;19916;-90
2023/05/03 03:11:38;;;;;;;;;;;;;;;12.70;100.00;100040.66;5052334;28;20007;-88
2023/05/03 03:14:03;;;;;;;;;;;;;;;12.59;100.00;100044.31;5064994;28;20366;-87
2023/05/03 03:16:29;;;;;;;;;;;;;;;12.68;100.00;100038.16;5062310;28;19912;-85
2023/05/03 03:18:54;;;;;;;;;;;;;;;12.72;100.00;100038.72;5063286;28;19916;-85
2023/05/03 03:21:19;;;;;;;;;;;;;;;12.59;100.00;100044.31;5070149;28;19976;-87
2023/05/03 03:23:45;;;;;;;;;;;;;;;12.42;100.00;100044.22;5046162;28;19922;-91
2023/05/03 03:26:11;;;;;;;;;;;;;;;12.32;100.00;100037.13;5043079;28;19927;-90
2023/05/03 03:28:38;;;;;;;;;;;;;;;12.39;100.00;100041.84;5048887;28;19913;-90
2023/05/03 03:31:08;;;;;;;;;;;;;;;12.51;100.00;100033.59;5051510;28;19916;-87
2023/05/03 03:33:34;;;;;;;;;;;;;;;12.56;100.00;100038.47;5050569;28;19916;-87
2023/05/03 03:36:06;;;;;;;;;;;;;;;12.50;100.00;100047.81;5043617;28;20360;-87
2023/05/03 03:38:34;;;;;;;;;;;;;;;12.54;100.00;100035.16;5081303;28;19905;-88
2023/05/03 03:41:03;;;;;;;;;;;;;;;12.61;100.00;100039.69;5072790;28;19917;-88
2023/05/03 03:43:29;;;;;;;;;;;;;;;12.70;100.00;100038.84;5066142;28;19923;-88
2023/05/03 03:45:55;;;;;;;;;;;;;;;12.76;100.00;100039.25;5056496;28;19916;-89
2023/05/03 03:48:22;;;;;;;;;;;;;;;12.75;100.00;100048.16;5049646;28;20011;-87
2023/05/03 03:50:48;;;;;;;;;;;;;;;12.69;100.00;100054.88;5052540;28;19917;-87
2023/05/03 03:53:13;;;;;;;;;;;;;;;12.66;100.00;100055.97;5058724;28;19928;-87
2023/05/03 03:55:39;;;;;;;;;;;;;;;12.67;100.00;100051.53;5049361;28;19916;-87
2023/05/03 03:58:06;;;;;;;;;;;;;;;12.68;100.00;100064.63;5050254;28;19916;-87
2023/05/03 04:00:35;;;;;;;;;;;;;;;12.67;100.00;100062.97;5050794;28;19916;-86
2023/05/03 04:03:07;;;;;;;;;;;;;;;12.58;100.00;100063.84;5050448;28;19970;-86
2023/05/03 04:05:32;;;;;;;;;;;;;;;12.61;100.00;100068.81;5067924;28;20435;-86
2023/05/03 04:07:59;;;;;;;;;;;;;;;12.59;100.00;100075.25;5029867;28;19921;-87
2023/05/03 04:10:27;;;;;;;;;;;;;;;12.56;100.00;100072.88;5046596;28;19927;-87
2023/05/03 04:12:53;;;;;;;;;;;;;;;12.51;100.00;100075.13;5068638;28;19917;-89
2023/05/03 04:15:18;;;;;;;;;;;;;;;12.56;100.00;100081.66;5060898;28;19921;-90
2023/05/03 04:17:45;;;;;;;;;;;;;;;12.63;100.00;100077.47;5044486;28;19975;-88
2023/05/03 04:20:12;;;;;;;;;;;;;;;12.67;100.00;100078.84;5069137;28;19924;-92
2023/05/03 04:22:39;;;;;;;;;;;;;;;12.62;100.00;100078.44;5047816;28;19955;-92
2023/05/03 04:25:07;;;;;;;;;;;;;;;12.69;100.00;100086.66;5052005;28;20415;-92
2023/05/03 04:27:33;;;;;;;;;;;;;;;12.75;100.00;100079.94;5051601;28;19927;-90
2023/05/03 04:29:59;;;;;;;;;;;;;;;12.79;100.00;100070.72;5030419;28;20361;-93
2023/05/03 04:32:25;;;;;;;;;;;;;;;12.77;100.00;100083.28;5035828;28;19916;-93
2023/05/03 04:34:54;;;;;;;;;;;;;;;12.81;100.00;100074.06;5041779;28;19916;-93
2023/05/03 04:37:21;;;;;;;;;;;;;;;12.81;100.00;100074.06;5038117;28;19917;-86
2023/05/03 04:39:47;;;;;;;;;;;;;;;12.78;100.00;100090.28;5026677;28;20279;-89
2023/05/03 04:42:14;;;;;;;;;;;;;;;12.73;100.00;100083.56;5051074;28;19924;-88
2023/05/03 04:44:43;;;;;;;;;;;;;;;12.77;100.00;100083.28;5030693;28;19917;-88
2023/05/03 04:47:09;;;;;;;;;;;;;;;12.69;100.00;100090.13;5046359;28;20011;-88
2023/05/03 04:49:36;;;;;;;;;;;;;;;12.52;100.00;100085.59;5039576;28;20372;-91
2023/05/03 04:52:02;;;;;;;;;;;;;;;12.44;100.00;100088.09;5047556;28;19924;-89
2023/05/03 04:54:28;;;;;;;;;;;;;;;12.50;100.00;100091.97;5033087;28;19920;-87
2023/05/03 04:56:55;;;;;;;;;;;;;;;12.51;100.00;100088.34;5049864;28;19917;-89
2023/05/03 04:59:21;;;;;;;;;;;;;;;12.56;100.00;100092.25;5065374;28;19917;-83
2023/05/03 05:01:46;;;;;;;;;;;;;;;12.57;100.00;100093.94;5050633;28;19916;-89
2023/05/03 05:04:12;;;;;;;;;;;;;;;12.59;100.00;100091.97;5069102;28;19916;-89
2023/05/03 05:06:42;;;;;;;;;;;;;;;12.60;100.00;100098.13;5045764;28;19916;-90
2023/05/03 05:09:22;;;;;;;;;;;;;;;12.65;100.00;100096.72;5037714;28;19928;-88
2023/05/03 05:11:49;;;;;;;;;;;;;;;12.57;100.00;100099.22;5064997;28;19917;-81
2023/05/03 05:14:16;;;;;;;;;;;;;;;12.59;100.00;100097.28;5045411;28;19920;-80
2023/05/03 05:16:41;;;;;;;;;;;;;;;12.63;100.00;100103.94;5048264;28;21458;-81
2023/05/03 05:19:07;;;;;;;;;;;;;;;12.65;100.00;100096.72;5048180;28;19927;-81
2023/05/03 05:21:32;;;;;;;;;;;;;;;12.75;100.00;100106.44;5066573;28;19916;-81
2023/05/03 05:23:58;;;;;;;;;;;;;;;12.81;100.00;100100.56;5047259;28;19921;-84
2023/05/03 05:26:24;;;;;;;;;;;;;;;12.87;100.00;100106.13;5044903;28;20281;-81
2023/05/03 05:28:50;;;;;;;;;;;;;;;12.96;100.00;100110.53;5061758;28;20011;-85
2023/05/03 05:31:16;;;;;;;;;;;;;;;13.01;100.00;100107.47;5069174;28;20437;-84
2023/05/03 05:33:42;;;;;;;4.93;4.43;;;;;;;13.11;100.00;100108.28;5048133;28;20404;-85
2023/05/03 05:36:08;;;;;;;4.70;4.40;;;;;;;13.11;100.00;100113.56;5046749;28;20464;-87
2023/05/03 05:38:33;;;;;;;;;;;;;;;13.07;100.00;100122.78;5046969;28;20899;-85
2023/05/03 05:40:59;;;;;;;5.10;4.70;;;;;;;13.08;100.00;100119.16;5048752;28;20490;-85
2023/05/03 05:43:25;;;;;;;;;;;;;;;13.19;100.00;100126.97;5045156;28;20401;-85
2023/05/03 05:45:50;;;;;;;;;;;;;;;13.23;100.00;100123.03;5043468;28;20433;-85
2023/05/03 05:48:16;;;;;;;4.82;4.43;;;;;;;13.20;100.00;100120.66;5048447;28;20068;-85
2023/05/03 05:50:44;;;;;;;4.47;4.10;;;;;;;13.30;100.00;100124.13;5046255;28;20032;-83
2023/05/03 05:53:11;;;;;;;5.05;4.65;;;;;;;13.44;100.00;100131.59;5046570;28;20123;-78
2023/05/03 05:55:41;;;;;;;4.38;3.97;;;;;;;13.55;100.00;100127.09;5043712;28;20025;-79
2023/05/03 05:58:06;;;;;;;5.40;4.90;;;;;;;13.61;100.00;100127.31;5067538;28;20032;-80
2023/05/03 06:00:38;;;;;;;4.45;4.15;;;;;;;13.71;100.00;100132.56;5041360;28;20091;-85
2023/05/03 06:03:04;;;;;;;4.87;4.47;;;;;;;13.79;100.00;100140.59;4335650;28;10000814;-82
2023/05/03 06:05:30;;;;;;;4.72;4.25;;;;;;;13.90;100.00;100137.75;5042108;28;20036;-82
2023/05/03 06:07:55;;;;;;;4.35;4.05;;;;;;;14.01;100.00;100140.19;5060610;28;20891;-81
2023/05/03 06:10:21;;;;;;;4.30;4.00;;;;;;;14.15;100.00;100146.78;5064243;28;20029;-82
2023/05/03 06:12:49;;;;;;;;;;;;;;;13.98;100.00;100151.09;5047512;28;20548;-81
2023/05/03 06:15:22;;;;;;;5.30;4.90;;;;;;;14.02;100.00;100147.16;5052624;28;20377;-82
2023/05/03 06:17:47;;;;;;;;;;;;;;;14.11;100.00;100151.56;5047130;28;19921;-83
2023/05/03 06:20:12;;;;;;;;;;;;;;;14.19;100.00;100156.97;5053301;28;20451;-83
2023/05/03 06:22:39;;;;;;;;;;;;;;;14.20;100.00;100155.97;5042243;28;20019;-84
2023/05/03 06:25:06;;;;;;;;;;;;;;;14.18;100.00;100152.63;5064134;28;19988;-86
2023/05/03 06:27:32;;;;;;;;;;;;;;;14.21;100.00;100154.97;5054348;28;19948;-86
2023/05/03 06:29:57;;;;;;;;;;;;;;;14.38;100.00;100152.50;5067301;28;19971;-85
2023/05/03 06:32:23;;;;;;;;;;;;;;;14.53;100.00;100158.94;5042791;28;20375;-84
2023/05/03 06:34:48;;;;;;;;;;;;;;;14.66;100.00;100160.22;5058623;28;20249;-83
2023/05/03 06:37:14;;;;;;;;;;;;;;;14.76;100.00;100160.13;4363452;28;10001680;-87
2023/05/03 06:39:39;;;;;;;;;;;;;;;14.82;100.00;100170.13;5059485;28;19920;-87
2023/05/03 06:42:06;;;;;;;;;;;;;;;14.84;100.00;100165.50;5068385;28;19920;-83
2023/05/03 06:44:35;;;;;;;;;;;;;;;14.96;100.00;100164.25;5047015;28;19921;-82
2023/05/03 06:47:01;;;;;;;;;;;;;;;15.06;100.00;100172.97;5065561;28;19950;-83
2023/05/03 06:49:26;;;;;;;;;;;;;;;15.21;100.00;100167.06;5051618;28;20377;-90
2023/05/03 06:51:51;;;;;;;;;;;;;;;15.30;100.00;100168.78;5060495;28;19927;-83
2023/05/03 06:54:18;;;;;;;;;;;;;;;15.36;100.00;100170.81;5058262;28;19967;-84
2023/05/03 06:56:44;;;;;;;;;;;;;;;15.45;100.00;100169.84;5062615;28;19920;-85
2023/05/03 06:59:10;;;;;;;;;;;;;;;15.59;100.00;100171.94;5044136;28;19924;-85
2023/05/03 07:01:36;;;;;;;;;;;;;;;15.71;100.00;100165.34;5064873;28;19931;-82
2023/05/03 07:04:01;;;;;;;;;;;;;;;15.77;100.00;100170.03;5059945;28;19928;-85
2023/05/03 07:06:26;;;;;;;;;;;;;;;15.90;100.00;100165.06;5060494;28;19920;-83
2023/05/03 07:08:52;;;;;;;;;;;;;;;15.97;100.00;100166.06;5062918;28;19924;-84
2023/05/03 07:11:24;;;;;;;;;;;;;;;16.01;100.00;100165.78;5028027;28;20354;-81
2023/05/03 07:13:50;;;;;;;;;;;;;;;16.08;100.00;100162.28;5067314;28;19928;-91
2023/05/03 07:16:15;;;;;;;;;;;;;;;16.15;100.00;100163.28;5063259;28;19928;-81
2023/05/03 07:18:41;;;;;;;;;;;;;;;16.26;100.00;100167.47;5081435;28;19920;-85
2023/05/03 07:21:06;;;;;;;;;;;;;;;16.31;100.00;100163.34;5061869;28;19920;-86
2023/05/03 07:23:31;;;;;;;;;;;;;;;16.38;100.00;100163.47;5075551;28;19943;-86
2023/05/03 07:25:58;;;;;;;;;;;;;;;16.41;100.00;100162.34;5063086;28;19963;-86
2023/05/03 07:28:23;;;;;;;;;;;;;;;16.50;100.00;100162.16;5062122;28;19921;-86
2023/05/03 07:30:49;;;;;;;;;;;;;;;16.59;100.00;100155.88;5065336;28;19924;-86
2023/05/03 07:33:15;;;;;;;;;;;;;;;16.65;100.00;100165.88;5058641;28;20359;-85
2023/05/03 07:35:40;;;;;;;;;;;;;;;16.71;100.00;100159.88;5065163;28;19916;-85
2023/05/03 07:38:05;;;;;;;;;;;;;;;16.74;100.00;100164.84;5058572;28;20587;-86
2023/05/03 07:40:32;;;;;;;;;;;;;;;16.75;100.00;100165.69;5063086;28;20391;-86
2023/05/03 07:43:00;;;;;;;;;;;;;;;16.77;100.00;100164.53;5061330;28;19925;-86
2023/05/03 07:45:25;;;;;;;;;;;;;;;16.73;100.00;100157.84;5069227;28;19928;-85
2023/05/03 07:47:51;;;;;;;;;;;;;;;16.74;100.00;100162.19;5061751;28;20281;-86
2023/05/03 07:50:16;;;;;;;;;;;;;;;16.82;100.00;100165.88;5065078;28;19932;-86
2023/05/03 07:52:42;;;;;;;;;;;;;;;16.85;100.00;100157.53;5061804;28;20597;-85
2023/05/03 07:55:07;;;;;;;;;;;;;;;16.91;100.00;100159.50;5047082;28;19932;-85
2023/05/03 07:57:33;;;;;;;;;;;;;;;16.88;100.00;100159.84;5064316;28;19920;-85
2023/05/03 07:59:58;;;;;;;;;;;;;;;16.93;100.00;100158.34;5062331;28;19924;-86
2023/05/03 08:02:23;;;;;;;;;;;;;;;17.01;100.00;100166.34;5062390;28;20396;-84
2023/05/03 08:04:49;;;;;;;;;;;;;;;17.07;100.00;100164.84;5063155;28;20416;-84
2023/05/03 08:07:16;;;;;;;;;;;;;;;17.15;100.00;100164.78;5048359;28;19916;-85
2023/05/03 08:09:41;;;;;;;;;;;;;;;17.23;100.00;100170.13;5063434;28;19920;-85
2023/05/03 08:12:07;;;;;;;;;;;;;;;17.32;100.00;100163.75;5066859;28;19989;-85
2023/05/03 08:14:32;;;;;;;;;;;;;;;17.32;100.00;100166.41;5067279;28;19927;-85
2023/05/03 08:16:58;;;;;;;;;;;;;;;17.33;100.00;100170.75;5068515;28;19988;-85
2023/05/03 08:19:23;;;;;;;;;;;;;;;17.43;100.00;100152.75;5065959;28;19927;-86
2023/05/03 08:21:51;;;;;;;;;;;;;;;17.38;100.00;100154.22;5065455;28;19925;-86
2023/05/03 08:24:16;;;;;;;;;;;;;;;17.52;100.00;100154.34;5067606;28;19972;-86
2023/05/03 08:26:42;;;;;;;;;;;;;;;17.50;100.00;100156.34;5064688;28;19943;-86
2023/05/03 08:29:07;;;;;;;;;;;;;;;17.56;100.00;100150.31;5065865;28;20420;-85
2023/05/03 08:31:33;;;;;;;;;;;;;;;17.61;100.00;100159.72;5067117;28;20297;-87
2023/05/03 08:34:00;;;;;;;;;;;;;;;17.65;100.00;100164.53;5064859;28;19970;-84
2023/05/03 08:36:26;;;;;;;;;;;;;;;17.48;100.00;100162.88;5065319;28;19921;-85
2023/05/03 08:38:51;;;;;;;;;;;;;;;17.65;100.00;100164.53;5075249;28;19921;-84
2023/05/03 08:41:24;;;;;;;;;;;;;;;17.80;100.00;100161.94;5075340;28;20003;-85
2023/05/03 08:43:53;;;;;;;;;;;;;;;17.94;100.00;100161.19;5065975;28;19955;-85
2023/05/03 08:46:18;;;;;;;;;;;;;;;18.04;100.00;100164.47;5068378;28;19929;-83
2023/05/03 08:48:46;;;;;;;;;;;;;;;17.98;100.00;100159.84;5066010;28;19921;-85
2023/05/03 08:51:12;;;;;;;;;;;;;;;18.02;100.00;100161.16;5068166;28;20019;-85
2023/05/03 08:53:38;;;;;;;;;;;;;;;18.14;100.00;100158.94;5067071;28;20050;-85
2023/05/03 08:56:09;;;;;;;;;;;;;;;18.19;100.00;100160.06;5063782;28;19929;-85
2023/05/03 08:58:38;;;;;;;;;;;;;;;18.24;100.00;100160.34;5068376;28;20384;-85
2023/05/03 09:01:04;;;;;;;;;;;;;;;18.31;100.00;100155.97;5063990;28;19947;-85
2023/05/03 09:03:30;;;;;;;;;;;;;;;18.38;100.00;100156.06;5067338;28;19924;-86
2023/05/03 09:06:00;;;;;;;;;;;;;;;18.50;100.00;100154.63;5064593;28;20337;-84
2023/05/03 09:08:26;;;;;;;;;;;;;;;18.52;100.00;100147.28;5067514;28;19928;-85
2023/05/03 09:10:51;;;;;;;;;;;;;;;18.54;100.00;100145.28;5063971;28;19920;-85
2023/05/03 09:13:17;;;;;;;;;;;;;;;18.63;100.00;100148.72;5067567;28;20010;-85
2023/05/03 09:15:45;;;;;;;;;;;;;;;18.72;100.00;100153.00;5065326;28;19929;-85
2023/05/03 09:18:12;;;;;;;;;;;;;;;18.73;100.00;100152.00;5067454;28;20445;-85
2023/05/03 09:20:39;;;;;;;;;;;;;;;18.74;100.00;100149.13;5063939;28;20289;-84
2023/05/03 09:23:05;;;;;;;;;;;;;;;18.73;100.00;100150.13;5066977;28;19923;-85
2023/05/03 09:25:43;;;;;;;;;;;;;;;18.77;100.00;100143.41;5063143;28;19920;-85
2023/05/03 09:28:08;;;;;;;;;;;;;;;18.76;100.00;100146.28;5061399;28;19917;-84
2023/05/03 09:30:33;;;;;;;;;;;;;;;18.68;100.00;100146.31;5046953;28;19926;-84
2023/05/03 09:32:59;;;;;;;;;;;;;;;18.73;100.00;100138.63;5062629;28;19967;-83
2023/05/03 09:35:24;;;;;;;;;;;;;;;18.81;100.00;100142.03;5063403;28;19974;-84
2023/05/03 09:37:50;;;;;;;;;;;;;;;18.88;100.00;100147.50;5059788;28;19951;-84
2023/05/03 09:40:17;;;;;;;;;;;;;;;18.89;100.00;100142.97;5062117;28;19974;-85
2023/05/03 09:43:08;;;;;;;;;;;;;;;18.98;100.00;100141.88;5059859;28;19921;-84
2023/05/03 09:45:37;;;;;;;;;;;;;;;19.03;99.92;100139.47;5058591;28;19920;-84
2023/05/03 09:48:03;;;;;;;;;;;;;;;19.08;100.00;100142.47;5060692;28;19920;-84
2023/05/03 09:50:30;;;;;;;;;;;;;;;19.18;99.88;100149.19;5061910;28;19925;-84
2023/05/03 09:52:57;;;;;;;;;;;;;;;19.22;99.30;100134.44;5059802;28;20385;-84
2023/05/03 09:55:24;;;;;;;;;;;;;;;19.31;99.27;100137.84;5062401;28;20320;-84
2023/05/03 09:57:50;;;;;;;;;;;;;;;19.22;97.20;100137.09;5058532;28;19963;-85
2023/05/03 10:00:16;;;;;;;;;;;;;;;19.10;98.33;100135.91;5059699;28;19920;-84
2023/05/03 10:02:43;;;;;;;;;;;;;;;19.07;97.06;100130.94;5061839;28;19924;-84
2023/05/03 10:05:10;;;;;;;;;;;;;;;18.91;96.62;100120.38;5060311;28;19927;-84
2023/05/03 10:07:38;;;;;;;;;;;;;;;18.77;97.56;100129.22;5061418;28;19928;-86
2023/05/03 10:10:06;;;;;;;;;;;;;;;18.78;98.41;100130.88;5064782;28;19920;-84
2023/05/03 10:12:34;;;;;;;;;;;;;;;18.76;98.44;100124.88;5061830;28;20380;-84
2023/05/03 10:15:02;;;;;;;;;;;;;;;18.77;96.60;100135.41;5044846;28;20014;-84
2023/05/03 10:17:30;;;;;;;;;;;;;;;18.73;91.92;100122.59;5063526;28;19921;-85
2023/05/03 10:19:59;;;;;;;;;;;;;;;18.72;90.95;100126.25;5063124;28;20011;-85
2023/05/03 10:22:25;;;;;;;;;;;;;;;18.86;91.33;100121.94;5043289;28;19921;-83
2023/05/03 10:25:00;;;;;;;;;;;;;;;19.04;92.45;100115.22;5063803;28;19939;-85
2023/05/03 10:27:51;;;;;;;;;;;;;;;19.20;93.43;100119.59;5060164;28;20436;-85
2023/05/03 10:30:31;;;;;;;;;;;;;;;19.10;91.61;100111.81;5056302;28;19921;-85
2023/05/03 10:32:56;;;;;;;;;;;;;;;19.02;91.26;100111.94;5058165;28;19967;-85
2023/05/03 10:35:25;;;;;;;;;;;;;;;18.96;91.81;100099.28;5058978;28;20304;-85
2023/05/03 10:37:51;;;;;;;;;;;;;;;18.93;91.35;100099.63;5062269;28;20416;-85
2023/05/03 10:40:18;;;;;;;;;;;;;;;18.96;92.13;100101.97;5059871;28;19929;-86
2023/05/03 10:42:51;;;;;;;;;;;;;;;18.98;91.33;100099.91;5043844;28;19983;-84
2023/05/03 10:45:21;;;;;;;;;;;;;;;18.99;91.62;100098.91;5062070;28;20438;-83
2023/05/03 10:48:05;;;;;;;;;;;;;;;19.01;91.74;100094.22;5059595;28;19921;-86
2023/05/03 10:50:30;;;;;;;;;;;;;;;19.02;90.70;100095.03;5061142;28;20012;-85
2023/05/03 10:52:56;;;;;;;;;;;;;;;19.10;90.14;100086.91;5067835;28;19960;-86
2023/05/03 10:55:23;;;;;;;;;;;;;;;19.26;91.71;100088.59;5059800;28;20348;-83
2023/05/03 10:57:52;;;;;;;;;;;;;;;19.41;92.18;100089.38;5060876;28;20439;-84
2023/05/03 11:00:18;;;;;;;;;;;;;;;19.56;90.59;100092.88;5049767;28;19970;-83
2023/05/03 11:02:46;;;;;;;;;;;;;;;19.63;88.84;100088.44;5073326;28;20007;-84
2023/05/03 11:05:12;;;;;;;;;;;;;;;19.72;88.33;100086.50;5067123;28;19921;-82
2023/05/03 11:07:38;;;;;;;;;;;;;;;19.70;86.54;100084.00;5062298;28;19920;-81
2023/05/03 11:10:16;;;;;;;;;;;;;;;19.77;87.09;100086.75;5059271;28;20284;-82
2023/05/03 11:12:41;;;;;;;;;;;;;;;19.85;85.68;100090.13;5061920;28;19921;-82
2023/05/03 11:15:07;;;;;;;;;;;;;;;19.92;84.33;100083.00;5062051;28;19921;-84
2023/05/03 11:17:32;;;;;;;;;;;;;;;19.89;83.66;100086.09;5060970;28;19920;-81
2023/05/03 11:19:58;;;;;;;;;;;;;;;19.98;84.49;100084.94;5059157;28;19920;-83
2023/05/03 11:22:23;;;;;;;;;;;;;;;20.03;83.58;100087.03;5062059;28;19952;-83
2023/05/03 11:24:50;;;;;;;;;;;;;;;20.11;83.60;100086.09;5056234;28;20011;-83
2023/05/03 11:27:22;;;;;;;;;;;;;;;20.20;82.89;100082.28;5062440;28;20341;-84
2023/05/03 11:29:48;;;;;;;;;;;;;;;20.23;81.51;100076.50;5058435;28;20377;-83
2023/05/03 11:32:14;;;;;;;;;;;;;;;20.31;81.16;100081.75;5061052;28;19935;-83
2023/05/03 11:34:40;;;;;;;;;;;;;;;20.37;79.86;100068.44;5064510;28;20392;-83
2023/05/03 11:37:07;;;;;;;;;;;;;;;20.38;77.89;100071.94;5064508;28;19927;-83
2023/05/03 11:39:32;;;;;;;;;;;;;;;20.41;77.67;100071.56;5063411;28;19920;-82
2023/05/03 11:42:04;;;;;;;;;;;;;;;20.44;78.88;100073.81;5063995;28;19921;-83
2023/05/03 11:44:30;;;;;;;;;;;;;;;20.53;78.40;100075.38;5060984;28;19928;-83
2023/05/03 11:46:55;;;;;;;;;;;;;;;20.63;79.47;100070.47;5050761;28;19921;-82
2023/05/03 11:49:22;;;;;;;;;;;;;;;20.75;80.31;100068.91;5066358;28;19921;-84
2023/05/03 11:51:47;;;;;;;;;;;;;;;20.76;77.39;100065.22;5069233;28;19928;-83
2023/05/03 11:54:13;;;;;;;;;;;;;;;20.70;77.31;100060.63;5065150;28;19929;-82
2023/05/03 11:56:38;;;;;;;;;;;;;;;20.81;77.58;100062.78;5045279;28;19928;-82
2023/05/03 11:59:03;;;;;;;;;;;;;;;20.89;77.09;100063.66;5065649;28;19924;-82
2023/05/03 12:01:29;;;;;;;;;;;;;;;21.03;76.54;100057.34;5067788;28;19948;-83
2023/05/03 12:03:55;;;;;;;;;;;;;;;21.18;75.40;100058.91;5065571;28;20345;-81
2023/05/03 12:06:21;;;;;;;;;;;;;;;21.35;74.78;100059.38;5067167;28;19974;-84
2023/05/03 12:08:47;;;;;;;;;;;;;;;21.45;72.84;100054.47;5065271;28;20361;-83
2023/05/03 12:11:13;;;;;;;;;;;;;;;21.58;71.89;100051.81;5068771;28;19978;-84
2023/05/03 12:13:38;;;;;;;;;;;;;;;21.45;71.38;100049.09;5063355;28;19925;-82
2023/05/03 12:16:05;;;;;;;;;;;;;;;21.28;71.97;100058.53;5069795;28;19943;-82
2023/05/03 12:18:50;;;;;;;;;;;;;;;21.16;71.74;100057.44;5065870;28;19967;-83
2023/05/03 12:21:16;;;;;;;;;;;;;;;21.33;71.01;100050.69;5059544;28;19942;-83
2023/05/03 12:23:42;;;;;;;;;;;;;;;21.51;69.33;100044.78;5065194;28;20011;-83
2023/05/03 12:26:07;;;;;;;;;;;;;;;21.67;69.03;100044.44;5067107;28;19920;-82
2023/05/03 12:28:33;;;;;;;;;;;;;;;21.84;68.33;100042.19;5066102;28;19973;-82
2023/05/03 12:30:58;;;;;;;;;;;;;;;22.08;67.25;100033.59;5048969;28;20126;-83
2023/05/03 12:33:24;;;;;;;;;;;;;;;22.20;66.46;100037.31;5067238;28;19921;-83